createdAt,value
2022-12-04T00:01:25.949Z,83.50
2022-12-04T00:03:58.732Z,49.85
2022-12-04T00:06:26.937Z,104.87
2022-12-04T00:08:55.342Z,80.78
2022-12-04T00:11:25.957Z,77.38
2022-12-04T00:13:53.913Z,93.75
2022-12-04T00:16:26.259Z,112.88
2022-12-04T00:18:54.747Z,105.10
2022-12-04T00:21:24.798Z,104.13
2022-12-04T00:23:53.605Z,110.13
2022-12-04T00:26:24.708Z,119.20
2022-12-04T00:28:53.057Z,146.50
2022-12-04T00:31:23.350Z,109.60
2022-12-04T00:33:51.104Z,54.95
2022-12-04T00:36:21.100Z,86.10
2022-12-04T00:38:48.939Z,54.20
2022-12-04T00:41:19.437Z,120.70
2022-12-04T00:43:47.107Z,54.55
2022-12-04T00:46:15.216Z,70.00
2022-12-04T00:48:43.262Z,77.90
2022-12-04T00:51:23.614Z,64.38
2022-12-04T00:53:52.775Z,44.92
2022-12-04T00:56:27.924Z,96.82
2022-12-04T00:58:57.744Z,81.75
2022-12-04T01:01:26.465Z,97.35
2022-12-04T01:03:55.393Z,95.30
2022-12-04T01:06:29.307Z,96.68
2022-12-04T01:08:58.845Z,112.93
2022-12-04T01:11:28.207Z,114.32
2022-12-04T01:13:57.138Z,107.97
2022-12-04T01:16:31.711Z,138.00
2022-12-04T01:19:00.027Z,106.03
2022-12-04T01:21:27.683Z,120.22
2022-12-04T01:23:55.386Z,135.15
2022-12-04T01:26:23.186Z,122.60
2022-12-04T01:28:50.796Z,111.43
2022-12-04T01:31:20.972Z,123.35
2022-12-04T01:33:49.202Z,111.35
2022-12-04T01:36:22.957Z,91.03
2022-12-04T01:38:51.487Z,107.90
2022-12-04T01:41:23.177Z,102.88
2022-12-04T01:44:15.293Z,104.03
2022-12-04T01:46:45.316Z,130.63
2022-12-04T01:49:34.198Z,89.95
2022-12-04T01:52:07.433Z,154.77
2022-12-04T01:54:40.128Z,152.20
2022-12-04T01:57:13.338Z,151.85
2022-12-04T01:59:45.846Z,158.15
2022-12-04T02:02:17.359Z,161.30
2022-12-04T02:04:45.154Z,145.38
2022-12-04T02:07:12.746Z,156.13
2022-12-04T02:09:42.342Z,146.63
2022-12-04T02:12:50.462Z,141.88
2022-12-04T02:16:02.388Z,116.05
2022-12-04T02:18:47.598Z,129.93
2022-12-04T02:21:37.548Z,73.07
2022-12-04T02:24:50.006Z,106.47
2022-12-04T02:27:39.549Z,106.68
2022-12-04T02:30:13.434Z,91.28
2022-12-04T02:32:47.108Z,119.45
2022-12-04T02:38:23.696Z,69.82
2022-12-04T02:41:05.989Z,41.67
2022-12-04T02:43:40.418Z,121.97
2022-12-04T02:46:22.835Z,115.32
2022-12-04T02:48:53.573Z,78.53
2022-12-04T02:51:25.265Z,65.00
2022-12-04T02:53:58.278Z,67.10
2022-12-04T02:56:31.744Z,74.35
2022-12-04T02:59:04.515Z,95.95
2022-12-04T03:01:36.376Z,90.30
2022-12-04T03:04:27.463Z,86.10
2022-12-04T03:07:10.026Z,87.95
2022-12-04T03:09:49.837Z,104.00
2022-12-04T03:12:43.695Z,111.88
2022-12-04T03:15:38.016Z,47.30
2022-12-04T03:20:38.763Z,47.85
2022-12-04T03:23:18.053Z,48.42
2022-12-04T03:26:00.746Z,51.72
2022-12-04T03:28:38.788Z,50.90
2022-12-04T03:31:09.896Z,43.42
2022-12-04T03:33:47.826Z,57.72
2022-12-04T03:36:23.958Z,60.38
2022-12-04T03:39:03.127Z,57.22
2022-12-04T03:41:50.124Z,70.75
2022-12-04T03:44:30.020Z,50.60
2022-12-04T03:47:19.486Z,88.72
2022-12-04T03:50:10.293Z,57.05
2022-12-04T03:52:51.300Z,39.17
2022-12-04T03:55:27.494Z,47.17
2022-12-04T03:58:01.234Z,106.68
2022-12-04T04:00:31.007Z,74.68
2022-12-04T04:03:28.652Z,63.92
2022-12-04T04:06:06.050Z,53.50
2022-12-04T04:08:39.123Z,42.53
2022-12-04T04:11:27.896Z,49.72
2022-12-04T04:14:25.843Z,120.57
2022-12-04T04:17:20.749Z,85.35
2022-12-04T04:20:11.111Z,72.57
2022-12-04T04:22:58.785Z,84.55
2022-12-04T04:25:28.176Z,129.60
2022-12-04T04:27:58.419Z,124.32
2022-12-04T04:30:29.667Z,131.32
2022-12-04T04:33:06.389Z,126.10
2022-12-04T04:36:02.926Z,157.20
2022-12-04T04:38:56.007Z,135.13
2022-12-04T04:41:32.953Z,146.07
2022-12-04T04:44:21.403Z,145.20
2022-12-04T04:46:55.197Z,114.70
2022-12-04T04:49:25.838Z,87.32
2022-12-04T04:51:54.927Z,96.43
2022-12-04T04:54:23.877Z,132.88
2022-12-04T04:56:51.338Z,130.60
2022-12-04T04:59:18.848Z,89.75
2022-12-04T05:01:47.427Z,152.90
2022-12-04T05:04:15.047Z,167.20
2022-12-04T05:06:42.543Z,130.23
2022-12-04T05:09:10.075Z,125.68
2022-12-04T05:11:37.568Z,147.90
2022-12-04T05:18:18.562Z,137.20
2022-12-04T05:20:46.133Z,161.73
2022-12-04T05:23:13.630Z,152.63
2022-12-04T05:25:41.161Z,156.35
2022-12-04T05:28:08.790Z,170.70
2022-12-04T05:30:36.434Z,165.30
2022-12-04T05:33:04.215Z,155.77
2022-12-04T05:35:32.185Z,128.68
2022-12-04T05:37:59.794Z,158.82
2022-12-04T05:40:27.298Z,163.80
2022-12-04T05:42:54.845Z,183.20
2022-12-04T05:45:22.365Z,146.77
2022-12-04T05:47:49.954Z,176.05
2022-12-04T05:50:17.476Z,175.57
2022-12-04T05:52:45.016Z,160.68
2022-12-04T05:55:12.564Z,88.97
2022-12-04T05:57:40.032Z,95.90
2022-12-04T06:00:08.279Z,68.65
2022-12-04T06:02:38.668Z,74.10
2022-12-04T06:05:06.463Z,56.58
2022-12-04T06:07:34.022Z,58.88
2022-12-04T06:10:01.540Z,52.83
2022-12-04T06:12:30.552Z,52.70
2022-12-04T06:14:58.263Z,50.35
2022-12-04T06:17:25.874Z,45.65
2022-12-04T06:19:54.023Z,44.13
2022-12-04T06:22:22.104Z,42.60
2022-12-04T06:24:49.614Z,41.65
2022-12-04T06:27:32.493Z,39.13
2022-12-04T06:30:00.063Z,37.25
2022-12-04T06:32:27.723Z,37.58
2022-12-04T06:34:55.735Z,38.47
2022-12-04T06:37:25.446Z,38.20
2022-12-04T06:39:53.224Z,33.15
2022-12-04T06:42:20.825Z,35.60
2022-12-04T06:44:49.583Z,34.30
2022-12-04T06:47:17.112Z,35.42
2022-12-04T06:49:46.285Z,33.28
2022-12-04T06:52:13.812Z,34.30
2022-12-04T06:54:41.410Z,32.22
2022-12-04T06:57:08.903Z,35.42
2022-12-04T06:59:36.575Z,33.33
2022-12-04T07:02:04.130Z,32.67
2022-12-04T07:04:31.629Z,31.08
2022-12-04T07:06:59.159Z,32.17
2022-12-04T07:09:26.732Z,31.88
2022-12-04T07:11:55.205Z,31.42
2022-12-04T07:14:22.704Z,31.10
2022-12-04T07:16:50.359Z,31.23
2022-12-04T07:19:17.870Z,33.00
2022-12-04T07:21:45.473Z,33.13
2022-12-04T07:24:17.824Z,32.97
2022-12-04T07:26:46.262Z,34.33
2022-12-04T07:29:13.829Z,34.70
2022-12-04T07:31:41.508Z,34.30
2022-12-04T07:34:09.144Z,33.17
2022-12-04T07:36:39.378Z,34.40
2022-12-04T07:39:07.206Z,31.55
2022-12-04T07:41:35.233Z,32.17
2022-12-04T07:44:07.403Z,32.55
2022-12-04T07:46:34.951Z,32.55
2022-12-04T07:49:02.582Z,32.72
2022-12-04T07:51:30.381Z,33.28
2022-12-04T07:54:03.158Z,33.78
2022-12-04T07:56:32.413Z,33.88
2022-12-04T07:59:00.701Z,31.85
2022-12-04T08:01:28.499Z,30.67
2022-12-04T08:03:58.561Z,28.33
2022-12-04T08:06:28.544Z,27.90
2022-12-04T08:08:57.613Z,29.58
2022-12-04T08:11:27.451Z,31.35
2022-12-04T08:14:01.010Z,29.83
2022-12-04T08:16:31.578Z,29.27
2022-12-04T08:19:00.696Z,28.98
2022-12-04T08:21:31.759Z,29.02
2022-12-04T08:24:01.138Z,28.08
2022-12-04T08:26:31.722Z,27.55
2022-12-04T08:29:01.535Z,27.77
2022-12-04T08:31:31.112Z,26.58
2022-12-04T08:34:00.539Z,30.15
2022-12-04T08:36:28.421Z,27.27
2022-12-04T08:38:56.491Z,26.25
2022-12-04T08:41:26.293Z,26.45
2022-12-04T08:43:55.459Z,27.83
2022-12-04T08:46:24.272Z,26.17
2022-12-04T08:48:52.129Z,26.08
2022-12-04T08:51:28.959Z,25.17
2022-12-04T08:54:01.298Z,26.20
2022-12-04T08:56:30.495Z,27.13
2022-12-04T08:58:59.115Z,25.95
2022-12-04T09:01:27.784Z,26.33
2022-12-04T09:03:55.682Z,24.67
2022-12-04T09:06:24.061Z,25.55
2022-12-04T09:08:56.798Z,25.48
2022-12-04T09:11:26.929Z,25.30
2022-12-04T09:13:56.063Z,25.25
2022-12-04T09:16:25.281Z,25.63
2022-12-04T09:18:53.260Z,24.33
2022-12-04T09:21:22.192Z,25.67
2022-12-04T09:23:50.718Z,26.05
2022-12-04T09:26:27.361Z,25.60
2022-12-04T09:28:56.361Z,25.95
2022-12-04T09:31:24.821Z,24.42
2022-12-04T09:33:52.990Z,26.33
2022-12-04T09:36:21.110Z,24.60
2022-12-04T09:38:51.317Z,25.83
2022-12-04T09:41:37.122Z,25.15
2022-12-04T09:44:48.751Z,24.48
2022-12-04T09:47:37.712Z,27.35
2022-12-04T09:50:20.922Z,27.83
2022-12-04T09:53:01.556Z,27.40
2022-12-04T09:55:52.203Z,29.15
2022-12-04T09:58:28.881Z,26.27
2022-12-04T10:00:58.743Z,26.23
2022-12-04T10:03:29.919Z,26.85
2022-12-04T10:06:18.451Z,28.60
2022-12-04T10:08:50.733Z,28.08
2022-12-04T10:11:26.593Z,26.60
2022-12-04T10:14:20.922Z,26.38
2022-12-04T10:17:03.616Z,26.48
2022-12-04T10:19:38.842Z,27.42
2022-12-04T10:22:42.887Z,29.65
2022-12-04T10:25:23.226Z,29.92
2022-12-04T10:28:09.226Z,27.52
2022-12-04T10:30:41.311Z,28.45
2022-12-04T10:33:40.019Z,28.25
2022-12-04T10:36:14.653Z,28.98
2022-12-04T10:38:56.671Z,28.27
2022-12-04T10:41:40.777Z,27.10
2022-12-04T10:46:45.710Z,28.73
2022-12-04T10:49:21.940Z,27.17
2022-12-04T10:51:49.961Z,27.55
2022-12-04T10:54:27.445Z,29.08
2022-12-04T10:56:54.980Z,28.20
2022-12-04T10:59:23.289Z,28.63
2022-12-04T11:01:52.861Z,26.90
2022-12-04T11:04:26.143Z,26.13
2022-12-04T11:07:49.062Z,28.60
2022-12-04T11:10:38.919Z,26.08
2022-12-04T11:13:15.835Z,28.42
2022-12-04T11:15:52.619Z,28.65
2022-12-04T11:18:32.358Z,29.75
2022-12-04T11:21:03.848Z,28.33
2022-12-04T11:23:51.534Z,30.80
2022-12-04T11:26:33.988Z,29.98
2022-12-04T11:29:02.569Z,28.58
2022-12-04T11:31:31.498Z,29.30
2022-12-04T11:34:05.180Z,29.85
2022-12-04T11:36:36.898Z,30.00
2022-12-04T11:39:07.491Z,30.58
2022-12-04T11:41:35.166Z,32.45
2022-12-04T11:44:02.929Z,31.27
2022-12-04T11:46:34.170Z,30.77
2022-12-04T11:49:03.599Z,31.08
2022-12-04T11:51:43.129Z,30.40
2022-12-04T11:54:32.719Z,31.42
2022-12-04T11:57:24.436Z,29.63
2022-12-04T12:00:17.760Z,29.83
2022-12-04T12:03:16.073Z,28.73
2022-12-04T12:05:55.567Z,29.13
2022-12-04T12:09:01.719Z,30.42
2022-12-04T12:11:41.270Z,28.55
2022-12-04T12:14:43.207Z,29.75
2022-12-04T12:17:25.847Z,28.77
2022-12-04T12:20:30.415Z,29.75
2022-12-04T12:22:57.891Z,30.08
2022-12-04T12:25:53.457Z,31.35
2022-12-04T12:28:46.760Z,28.98
2022-12-04T12:31:39.337Z,30.27
2022-12-04T12:34:34.720Z,28.92
2022-12-04T12:37:11.068Z,30.38
2022-12-04T12:40:15.356Z,30.98
2022-12-04T12:42:58.382Z,28.60
2022-12-04T12:46:14.358Z,30.58
2022-12-04T12:48:47.168Z,30.38
2022-12-04T12:51:30.710Z,30.52
2022-12-04T12:54:23.448Z,29.70
2022-12-04T12:56:56.633Z,29.52
2022-12-04T12:59:28.284Z,30.30
2022-12-04T13:02:20.121Z,28.23
2022-12-04T13:04:54.219Z,29.67
2022-12-04T13:07:40.764Z,29.85
2022-12-04T13:10:24.927Z,31.10
2022-12-04T13:15:44.903Z,29.98
2022-12-04T13:18:27.699Z,29.88
2022-12-04T13:20:59.386Z,30.73
2022-12-04T13:24:24.097Z,29.88
2022-12-04T13:27:20.825Z,29.42
2022-12-04T13:30:03.225Z,31.90
2022-12-04T13:32:55.567Z,29.23
2022-12-04T13:35:51.877Z,31.10
2022-12-04T13:38:57.861Z,28.40
2022-12-04T13:41:27.925Z,29.35
2022-12-04T13:43:59.032Z,30.25
2022-12-04T13:49:27.763Z,29.13
2022-12-04T13:51:57.323Z,30.55
2022-12-04T13:54:31.340Z,31.08
2022-12-04T13:57:15.801Z,31.13
2022-12-04T13:59:44.289Z,30.27
2022-12-04T14:02:23.196Z,29.80
2022-12-04T14:05:01.366Z,29.17
2022-12-04T14:07:37.791Z,29.38
2022-12-04T14:10:27.027Z,26.90
2022-12-04T14:13:07.476Z,29.10
2022-12-04T14:15:39.685Z,27.73
2022-12-04T14:18:20.845Z,29.40
2022-12-04T14:21:02.223Z,28.00
2022-12-04T14:23:39.645Z,26.95
2022-12-04T14:27:03.685Z,28.42
2022-12-04T14:29:47.698Z,27.08
2022-12-04T14:32:23.558Z,26.15
2022-12-04T14:34:51.266Z,27.42
2022-12-04T14:37:31.086Z,27.98
2022-12-04T14:40:00.348Z,26.80
2022-12-04T14:42:40.599Z,26.83
2022-12-04T14:45:28.101Z,26.95
2022-12-04T14:48:23.437Z,27.10
2022-12-04T14:51:09.382Z,27.67
2022-12-04T14:53:57.566Z,29.00
2022-12-04T14:57:17.596Z,28.35
2022-12-04T14:59:49.305Z,28.63
2022-12-04T15:02:41.923Z,29.38
2022-12-04T15:05:22.976Z,28.80
2022-12-04T15:07:53.839Z,28.63
2022-12-04T15:10:43.659Z,27.33
2022-12-04T15:13:16.024Z,28.30
2022-12-04T15:15:47.264Z,28.35
2022-12-04T15:18:17.166Z,28.80
2022-12-04T15:20:51.356Z,27.05
2022-12-04T15:23:28.262Z,27.85
2022-12-04T15:25:58.372Z,28.23
2022-12-04T15:28:48.346Z,26.55
2022-12-04T15:31:23.635Z,27.85
2022-12-04T15:33:56.566Z,27.92
2022-12-04T15:36:26.995Z,26.27
2022-12-04T15:38:54.776Z,26.77
2022-12-04T15:41:31.530Z,24.58
2022-12-04T15:43:59.765Z,25.40
2022-12-04T15:46:35.914Z,24.55
2022-12-04T15:49:25.007Z,27.08
2022-12-04T15:52:05.235Z,27.80
2022-12-04T15:54:36.365Z,25.92
2022-12-04T15:57:28.459Z,25.73
2022-12-04T16:00:01.299Z,24.98
2022-12-04T16:02:32.145Z,24.90
2022-12-04T16:05:22.631Z,27.40
2022-12-04T16:08:02.943Z,26.48
2022-12-04T16:10:34.232Z,26.38
2022-12-04T16:13:04.681Z,26.70
2022-12-04T16:15:41.664Z,25.70
2022-12-04T16:18:14.334Z,24.63
2022-12-04T16:20:41.927Z,24.70
2022-12-04T16:23:09.836Z,25.27
2022-12-04T16:25:37.347Z,23.95
2022-12-04T16:28:05.086Z,24.00
2022-12-04T16:30:35.013Z,23.80
2022-12-04T16:33:02.671Z,25.10
2022-12-04T16:35:31.642Z,24.70
2022-12-04T16:37:59.158Z,24.48
2022-12-04T16:40:26.744Z,23.48
2022-12-04T16:42:54.171Z,23.40
2022-12-04T16:45:35.469Z,22.77
2022-12-04T16:48:03.025Z,20.95
2022-12-04T16:50:30.543Z,22.17
2022-12-04T16:52:58.454Z,21.90
2022-12-04T16:55:35.838Z,22.48
2022-12-04T16:58:04.676Z,20.38
2022-12-04T17:00:32.464Z,21.38
2022-12-04T17:03:02.135Z,20.75
2022-12-04T17:05:32.152Z,21.05
2022-12-04T17:08:00.116Z,19.92
2022-12-04T17:10:29.540Z,20.05
2022-12-04T17:12:57.083Z,20.98
2022-12-04T17:15:24.905Z,21.05
2022-12-04T17:17:52.415Z,18.92
2022-12-04T17:20:21.652Z,19.92
2022-12-04T17:22:49.587Z,20.13
2022-12-04T17:25:18.429Z,19.08
2022-12-04T17:27:46.334Z,19.58
2022-12-04T17:30:14.647Z,19.52
2022-12-04T17:32:42.727Z,19.05
2022-12-04T17:35:12.795Z,19.92
2022-12-04T17:37:40.698Z,18.42
2022-12-04T17:40:14.427Z,19.17
2022-12-04T17:45:11.665Z,19.15
2022-12-04T17:47:39.220Z,19.23
2022-12-04T17:50:07.550Z,18.60
2022-12-04T17:52:35.196Z,19.35
2022-12-04T17:55:03.064Z,19.05
2022-12-04T17:57:30.533Z,17.83
2022-12-04T17:59:58.054Z,19.10
2022-12-04T18:02:25.590Z,19.10
2022-12-04T18:04:55.551Z,17.60
2022-12-04T18:07:23.335Z,17.63
2022-12-04T18:09:50.813Z,18.95
2022-12-04T18:12:18.297Z,17.63
2022-12-04T18:14:46.493Z,19.02
2022-12-04T18:17:14.106Z,17.80
2022-12-04T18:19:41.773Z,18.05
2022-12-04T18:22:09.426Z,17.55
2022-12-04T18:24:37.004Z,17.50
2022-12-04T18:27:05.602Z,16.65
2022-12-04T18:29:33.151Z,17.27
2022-12-04T18:32:00.942Z,17.48
2022-12-04T18:34:28.585Z,15.57
2022-12-04T18:36:56.138Z,16.83
2022-12-04T18:39:25.172Z,18.33
2022-12-04T18:41:56.673Z,16.70
2022-12-04T18:44:25.074Z,16.83
2022-12-04T18:46:53.691Z,17.75
2022-12-04T18:49:21.267Z,17.73
2022-12-04T18:51:50.270Z,18.38
2022-12-04T18:54:21.183Z,18.58
2022-12-04T18:56:49.352Z,17.35
2022-12-04T18:59:19.937Z,18.63
2022-12-04T19:01:50.245Z,18.17
2022-12-04T19:04:19.668Z,17.67
2022-12-04T19:06:55.011Z,17.63
2022-12-04T19:09:47.353Z,19.08
2022-12-04T19:12:13.762Z,19.25
2022-12-04T19:14:41.346Z,17.77
2022-12-04T19:17:09.250Z,18.30
2022-12-04T19:19:37.116Z,17.95
2022-12-04T19:22:04.689Z,18.13
2022-12-04T19:24:32.469Z,17.55
2022-12-04T19:27:01.847Z,18.23
2022-12-04T19:29:29.572Z,18.65
2022-12-04T19:31:59.537Z,18.23
2022-12-04T19:34:27.449Z,18.67
2022-12-04T19:36:55.399Z,17.70
2022-12-04T19:39:22.968Z,17.85
2022-12-04T19:41:50.599Z,18.20
2022-12-04T19:47:05.833Z,18.70
2022-12-04T19:49:33.421Z,17.77
2022-12-04T19:52:00.954Z,18.52
2022-12-04T19:54:30.192Z,17.70
2022-12-04T19:56:57.714Z,16.88
2022-12-04T19:59:25.227Z,17.67
2022-12-04T20:01:52.922Z,17.25
2022-12-04T20:04:20.751Z,17.75
2022-12-04T20:06:48.313Z,18.05
2022-12-04T20:09:21.541Z,17.17
2022-12-04T20:11:49.342Z,17.10
2022-12-04T20:14:17.088Z,17.27
2022-12-04T20:16:45.001Z,17.83
2022-12-04T20:19:15.261Z,17.15
2022-12-04T20:21:43.822Z,18.65
2022-12-04T20:24:15.080Z,17.70
2022-12-04T20:26:45.004Z,17.42
2022-12-04T20:29:15.010Z,18.05
2022-12-04T20:31:44.653Z,19.13
2022-12-04T20:34:15.461Z,18.02
2022-12-04T20:36:45.264Z,18.63
2022-12-04T20:39:14.397Z,18.75
2022-12-04T20:41:42.724Z,18.20
2022-12-04T20:44:14.402Z,18.50
2022-12-04T20:46:42.806Z,17.92
2022-12-04T20:49:21.096Z,17.98
2022-12-04T20:51:51.072Z,17.67
2022-12-04T20:54:20.340Z,18.20
2022-12-04T20:56:49.239Z,18.17
2022-12-04T20:59:19.226Z,18.40
2022-12-04T21:01:49.111Z,16.55
2022-12-04T21:04:18.176Z,17.02
2022-12-04T21:06:47.135Z,17.08
2022-12-04T21:09:20.381Z,17.17
2022-12-04T21:11:55.512Z,17.58
2022-12-04T21:14:49.230Z,17.10
2022-12-04T21:17:19.429Z,16.02
2022-12-04T21:19:49.365Z,16.92
2022-12-04T21:22:18.749Z,16.35
2022-12-04T21:24:46.362Z,15.43
2022-12-04T21:27:20.420Z,15.00
2022-12-04T21:29:49.139Z,15.30
2022-12-04T21:32:17.839Z,15.75
2022-12-04T21:34:45.462Z,14.73
2022-12-04T21:37:13.300Z,14.98
2022-12-04T21:39:41.987Z,14.65
2022-12-04T21:42:28.198Z,12.35
2022-12-04T21:44:55.763Z,12.80
2022-12-04T21:47:23.370Z,12.40
2022-12-04T21:49:50.938Z,12.68
2022-12-04T21:52:19.381Z,12.65
2022-12-04T21:54:54.100Z,12.70
2022-12-04T21:57:22.507Z,11.95
2022-12-04T21:59:53.057Z,12.60
2022-12-04T22:02:20.892Z,12.48
2022-12-04T22:04:48.474Z,13.27
2022-12-04T22:07:15.986Z,12.90
2022-12-04T22:09:43.661Z,12.55
2022-12-04T22:12:26.830Z,12.70
2022-12-04T22:14:58.636Z,12.73
2022-12-04T22:17:29.511Z,11.98
2022-12-04T22:19:57.410Z,12.57
2022-12-04T22:22:25.076Z,11.57
2022-12-04T22:24:52.585Z,13.23
2022-12-04T22:27:20.041Z,12.38
2022-12-04T22:29:50.855Z,13.77
2022-12-04T22:32:29.740Z,13.35
2022-12-04T22:34:57.280Z,13.20
2022-12-04T22:37:25.180Z,14.77
2022-12-04T22:39:52.628Z,14.90
2022-12-04T22:42:20.170Z,15.75
2022-12-04T22:44:47.971Z,15.63
2022-12-04T22:47:15.501Z,16.55
2022-12-04T22:49:43.041Z,16.77
2022-12-04T22:52:10.781Z,16.80
2022-12-04T22:54:38.332Z,18.20
2022-12-04T22:57:05.811Z,17.63
2022-12-04T22:59:34.104Z,18.52
2022-12-04T23:02:01.651Z,17.10
2022-12-04T23:04:29.666Z,18.58
2022-12-04T23:06:57.210Z,17.27
2022-12-04T23:09:26.320Z,18.40
2022-12-04T23:11:55.056Z,17.58
2022-12-04T23:14:23.459Z,17.20
2022-12-04T23:16:51.238Z,18.65
2022-12-04T23:19:20.140Z,18.63
2022-12-04T23:21:55.031Z,18.88
2022-12-04T23:24:25.140Z,18.35
2022-12-04T23:26:52.811Z,19.60
2022-12-04T23:29:51.492Z,19.30
2022-12-04T23:32:08.103Z,18.67
2022-12-04T23:34:35.670Z,18.95
2022-12-04T23:37:03.129Z,18.85
2022-12-04T23:39:30.649Z,18.42
2022-12-04T23:41:58.108Z,17.42
2022-12-04T23:44:25.793Z,16.85
2022-12-04T23:46:53.428Z,17.73
2022-12-04T23:49:21.030Z,18.83
2022-12-04T23:51:48.499Z,18.13
2022-12-04T23:54:16.002Z,17.83
2022-12-04T23:56:44.160Z,17.55
2022-12-04T23:59:11.699Z,18.40
